Time;durP1;ratioP1;P1;durP2;ratioP2;P2;SDS_P1;SDS_P2;PMS_P1;PMS_P2;Temp;Humidity;BMP_temperature;BMP_pressure;BME280_temperature;BME280_humidity;BME280_pressure;Samples;Min_cycle;Max_cycle;Signal;HPM_P1;HPM_P2
2023/09/21 00:01:03;;;;;;;2.15;1.05;;;;;;;19.29;71.75;99876.72;5052580;27;97833;-29
2023/09/21 00:03:28;;;;;;;2.95;1.23;;;;;;;19.30;71.98;99878.44;5052688;27;96564;-28
2023/09/21 00:05:56;;;;;;;2.10;1.10;;;;;;;19.30;71.92;99878.44;5052438;27;97251;-27
2023/09/21 00:08:23;;;;;;;2.70;0.77;;;;;;;19.29;72.09;99879.47;5033916;27;100913;-27
2023/09/21 00:10:50;;;;;;;1.63;0.98;;;;;;;19.27;71.95;99874.13;5033980;27;100705;-27
2023/09/21 00:13:20;;;;;;;2.42;0.73;;;;;;;19.24;71.83;99871.75;5034121;27;96961;-27
2023/09/21 00:15:47;;;;;;;2.60;1.15;;;;;;;19.26;71.87;99880.69;5052713;27;96710;-27
2023/09/21 00:18:13;;;;;;;2.42;0.90;;;;;;;19.25;71.94;99875.34;5033552;27;101472;-28
2023/09/21 00:23:08;;;;;;;0.98;0.60;;;;;;;19.20;72.04;99867.63;5051808;27;96585;-27
2023/09/21 00:25:34;;;;;;;1.70;0.85;;;;;;;19.23;71.93;99861.78;5033973;27;96852;-27
2023/09/21 00:28:07;;;;;;;2.67;1.15;;;;;;;19.22;72.28;99857.34;5033853;27;101266;-27
2023/09/21 00:30:37;;;;;;;3.85;0.88;;;;;;;19.23;72.13;99863.69;5052154;27;99346;-27
2023/09/21 00:33:04;;;;;;;2.67;0.85;;;;;;;19.28;72.12;99867.63;5033622;27;96614;-27
2023/09/21 00:35:29;;;;;;;2.63;0.80;;;;;;;19.25;72.28;99861.63;5033821;27;96804;-28
2023/09/21 00:37:57;;;;;;;1.35;0.88;;;;;;;19.23;72.01;99859.03;5051858;27;99356;-27
2023/09/21 00:40:23;;;;;;;3.15;0.70;;;;;;;19.29;71.80;99865.75;5036105;27;100725;-28
2023/09/21 00:42:51;;;;;;;2.28;0.93;;;;;;;19.25;71.95;99856.13;5055727;27;96415;-27
2023/09/21 00:45:18;;;;;;;3.47;0.73;;;;;;;19.26;72.16;99857.84;5037096;27;96799;-27
2023/09/21 00:47:54;;;;;;;3.25;1.02;;;;;;;19.27;72.40;99851.31;5036517;27;100952;-29
2023/09/21 00:50:21;;;;;;;1.85;1.05;;;;;;;19.29;72.23;99863.84;5037251;27;101371;-27
2023/09/21 00:52:53;;;;;;;4.22;0.90;;;;;;;19.25;72.30;99843.25;5037172;27;96600;-27
2023/09/21 00:55:25;;;;;;;2.08;0.80;;;;;;;19.30;72.34;99850.97;5055854;27;96649;-27
2023/09/21 00:58:02;;;;;;;3.00;1.35;;;;;;;19.30;72.23;99843.56;5055298;27;97926;-27
2023/09/21 01:00:29;;;;;;;1.23;0.75;;;;;;;19.26;72.28;99824.91;5037138;27;102110;-27
2023/09/21 01:02:58;;;;;;;2.92;0.85;;;;;;;19.29;72.42;99841.88;5037083;27;96554;-27
2023/09/21 01:05:24;;;;;;;1.98;1.10;;;;;;;19.25;72.25;99823.19;5055600;27;96927;-27
2023/09/21 01:07:50;;;;;;;1.63;0.77;;;;;;;19.29;72.68;99832.78;5055333;27;97975;-27
2023/09/21 01:10:19;;;;;;;2.25;0.98;;;;;;;19.26;72.44;99824.91;5036774;27;101097;-27
2023/09/21 01:12:48;;;;;;;1.60;1.00;;;;;;;19.27;72.43;99832.09;5036597;27;96866;-27
2023/09/21 01:15:15;;;;;;;1.75;0.70;;;;;;;19.27;72.73;99829.34;5036805;27;96806;-27
2023/09/21 01:17:44;;;;;;;5.30;1.00;;;;;;;19.26;72.75;99824.91;5036776;27;101444;-27
2023/09/21 01:20:32;;;;;;;1.73;1.08;;;;;;;19.22;72.70;99818.03;5055019;27;98059;-27
2023/09/21 01:23:10;;;;;;;1.40;0.60;;;;;;;19.19;72.64;99804.69;5055119;27;96435;-29
2023/09/21 01:25:41;;;;;;;1.35;0.70;;;;;;;19.20;72.58;99811.88;5055282;27;96669;-27
2023/09/21 01:28:11;;;;;;;3.67;1.00;;;;;;;19.20;72.83;99809.97;5036532;27;100795;-27
2023/09/21 01:30:38;;;;;;;2.42;0.75;;;;;;;19.20;72.57;99814.63;5055219;27;99551;-27
2023/09/21 01:33:08;;;;;;;2.25;1.08;;;;;;;19.24;72.93;99813.25;5036622;27;96526;-27
2023/09/21 01:35:43;;;;;;;4.03;0.70;;;;;;;19.19;72.89;99800.03;5036564;27;96821;-27
2023/09/21 01:38:10;;;;;;;1.95;0.77;;;;;;;19.22;73.01;99804.31;5036021;27;99137;-27
2023/09/21 01:40:37;;;;;;;2.40;0.90;;;;;;;19.20;72.81;99798.16;5054770;27;97663;-27
2023/09/21 01:43:10;;;;;;;3.08;1.10;;;;;;;19.18;72.86;99798.31;5036422;27;96724;-27
2023/09/21 01:45:40;;;;;;;1.52;0.80;;;;;;;19.23;73.09;99806.88;5036034;27;96856;-28
2023/09/21 01:48:09;;;;;;;1.77;1.02;;;;;;;19.23;72.78;99808.75;5054205;27;99504;-27
2023/09/21 01:50:47;;;;;;;2.55;0.70;;;;;;;19.23;72.93;99808.75;5036162;27;100976;-27
2023/09/21 01:53:17;;;;;;;1.80;0.93;;;;;;;19.20;72.78;99800.88;5036473;27;96618;-27
2023/09/21 01:55:44;;;;;;;2.47;1.00;;;;;;;19.21;72.97;99805.34;5036545;27;96904;-27
2023/09/21 01:58:11;;;;;;;1.88;0.73;;;;;;;19.20;73.15;99806.38;5035851;27;101193;-28
2023/09/21 02:00:46;;;;;;;1.65;0.80;;;;;;;19.23;73.09;99806.03;5036549;27;97867;-27
2023/09/21 02:03:13;;;;;;;1.02;0.70;;;;;;;19.21;72.86;99808.97;5053684;27;96669;-27
2023/09/21 02:05:42;;;;;;;5.28;1.02;;;;;;;19.26;72.93;99811.19;5036176;27;97107;-27
2023/09/21 02:08:11;;;;;;;2.22;1.10;;;;;;;19.19;72.71;99805.53;5054089;27;97879;-27
2023/09/21 02:10:40;;;;;;;1.85;0.95;;;;;;;19.20;72.71;99799.00;5054223;27;99217;-28
2023/09/21 02:13:07;;;;;;;1.08;0.80;;;;;;;19.19;73.08;99790.97;5036086;27;96669;-27
2023/09/21 02:15:34;;;;;;;4.55;1.05;;;;;;;19.25;72.96;99806.69;5035957;27;96827;-27
2023/09/21 02:18:02;;;;;;;1.63;0.77;;;;;;;19.22;72.73;99799.69;5054054;27;99561;-29
2023/09/21 02:20:29;;;;;;;2.63;1.08;;;;;;;19.26;73.01;99805.69;5036102;27;100963;-27
2023/09/21 02:22:57;;;;;;;1.48;0.95;;;;;;;19.26;73.26;99800.19;5054085;27;96592;-28
2023/09/21 02:25:24;;;;;;;1.25;0.80;;;;;;;19.27;73.12;99791.75;5035786;27;96814;-27
2023/09/21 02:27:49;;;;;;;2.30;0.50;;;;;;;19.27;73.43;99791.75;5053472;27;97511;-27
2023/09/21 02:30:17;;;;;;;1.65;0.90;;;;;;;19.25;73.52;99784.75;5054051;27;98189;-27
2023/09/21 02:32:44;;;;;;;2.65;0.90;;;;;;;19.24;73.55;99778.41;5035375;27;96907;-28
2023/09/21 02:35:16;;;;;;;3.67;0.98;;;;;;;19.19;73.50;99758.00;5035641;27;96845;-27
2023/09/21 02:37:46;;;;;;;2.05;1.00;;;;;;;19.23;73.95;99767.59;5035557;27;101055;-27
2023/09/21 02:40:16;;;;;;;1.55;0.82;;;;;;;19.20;73.82;99762.44;5035508;27;100946;-27
2023/09/21 02:42:43;;;;;;;2.88;1.05;;;;;;;19.18;74.03;99767.25;5035617;27;96505;-27
2023/09/21 02:45:10;;;;;;;2.67;1.08;;;;;;;19.20;74.21;99755.06;5035415;27;96815;-27
2023/09/21 02:47:37;;;;;;;1.42;0.90;;;;;;;19.23;74.24;99753.84;5035188;27;98969;-27
2023/09/21 02:50:09;;;;;;;3.72;0.95;;;;;;;19.21;74.61;99751.31;5035319;27;100994;-27
2023/09/21 02:52:36;;;;;;;1.75;0.85;;;;;;;19.24;74.48;99752.84;5034685;27;96898;-27
2023/09/21 02:55:01;;;;;;;1.67;1.00;;;;;;;19.29;74.50;99758.66;5053598;27;96889;-27
2023/09/21 02:57:28;;;;;;;2.38;0.82;;;;;;;19.27;74.68;99772.53;5053313;27;99414;-27
2023/09/21 02:59:53;;;;;;;1.33;0.93;;;;;;;19.26;74.88;99761.75;5053497;27;98157;-27
2023/09/21 03:02:19;;;;;;;3.72;0.80;;;;;;;19.26;75.31;99775.47;5034981;27;96587;-26
2023/09/21 03:04:46;;;;;;;3.55;1.05;;;;;;;19.22;76.56;99782.34;5053086;27;96836;-27
2023/09/21 03:07:12;;;;;;;2.38;1.00;;;;;;;19.10;78.20;99769.00;5053120;27;99787;-27
2023/09/21 03:09:38;;;;;;;1.55;0.82;;;;;;;19.04;79.08;99768.84;5053823;27;97813;-27
2023/09/21 03:12:03;;;;;;;2.05;0.82;;;;;;;19.02;79.17;99780.03;5053386;27;96557;-27
2023/09/21 03:14:29;;;;;;;3.35;0.90;;;;;;;18.98;78.69;99784.13;5053772;27;96753;-27
2023/09/21 03:16:54;;;;;;;4.20;1.05;;;;;;;18.94;79.51;99777.28;5052851;27;97905;-27
2023/09/21 03:19:22;;;;;;;2.28;0.55;;;;;;;18.90;80.35;99775.91;5034863;27;100667;-27
2023/09/21 03:21:48;;;;;;;2.22;1.00;;;;;;;18.88;80.25;99775.25;5053096;27;96568;-27
2023/09/21 03:24:13;;;;;;;4.45;1.20;;;;;;;18.81;81.26;99774.22;5034994;27;96725;-28
2023/09/21 03:26:39;;;;;;;1.02;0.80;;;;;;;18.80;80.35;99764.28;5053186;27;97810;-27
2023/09/21 03:29:08;;;;;;;2.63;1.17;;;;;;;18.80;81.24;99780.72;5052714;27;99090;-27
2023/09/21 03:31:33;;;;;;;1.38;0.85;;;;;;;18.76;82.09;99771.09;5052917;27;96460;-27
2023/09/21 03:34:02;;;;;;;2.30;0.82;;;;;;;18.72;81.80;99767.00;5053188;27;96851;-27
2023/09/21 03:36:28;;;;;;;2.58;0.88;;;;;;;18.72;82.89;99767.00;5052689;27;99068;-27
2023/09/21 03:38:54;;;;;;;1.65;0.98;;;;;;;18.68;82.56;99766.47;5053134;27;97806;-27
2023/09/21 03:41:20;;;;;;;2.30;0.90;;;;;;;18.64;82.71;99757.75;5052387;27;96487;-28
2023/09/21 03:43:45;;;;;;;1.65;0.90;;;;;;;18.64;82.95;99757.75;5034723;27;96903;-27
2023/09/21 03:46:11;;;;;;;1.35;0.90;;;;;;;18.63;82.45;99745.06;5052603;27;97619;-27
2023/09/21 03:48:37;;;;;;;2.47;1.15;;;;;;;18.64;83.77;99745.94;5034047;27;100942;-27
2023/09/21 03:51:04;;;;;;;2.85;1.10;;;;;;;18.62;83.17;99743.34;5052963;27;96582;-27
2023/09/21 03:53:33;;;;;;;2.10;0.95;;;;;;;18.65;83.79;99745.75;5034502;27;96678;-27
2023/09/21 03:56:01;;;;;;;1.15;0.80;;;;;;;18.63;83.46;99745.06;5018076;27;101264;-27
2023/09/21 03:58:28;;;;;;;1.83;0.85;;;;;;;18.56;84.42;99740.44;5034622;27;100844;-28
2023/09/21 04:00:54;;;;;;;1.25;0.85;;;;;;;18.59;84.38;99746.47;5034276;27;96716;-27
2023/09/21 04:03:20;;;;;;;1.17;0.90;;;;;;;18.54;83.88;99723.31;5052338;27;96843;-27
2023/09/21 04:05:46;;;;;;;2.40;1.30;;;;;;;18.59;83.86;99735.50;5051924;27;99168;-27
2023/09/21 04:08:11;;;;;;;2.85;1.00;;;;;;;18.62;83.48;99734.28;5052453;27;97884;-27
2023/09/21 04:10:37;;;;;;;2.58;1.00;;;;;;;18.54;85.33;99726.91;5052824;27;96523;-27
2023/09/21 04:13:02;;;;;;;1.95;0.88;;;;;;;18.48;85.21;99727.59;5052556;27;96807;-28
2023/09/21 04:15:29;;;;;;;3.08;1.25;;;;;;;18.48;84.86;99727.59;5051148;27;99393;-28
2023/09/21 04:17:56;;;;;;;0.93;0.68;;;;;;;18.45;84.94;99730.72;5033807;27;101229;-27
2023/09/21 04:20:22;;;;;;;1.42;0.80;;;;;;;18.44;85.86;99731.72;5034126;27;96693;-29
2023/09/21 04:22:49;;;;;;;1.50;0.93;;;;;;;18.46;86.03;99736.00;5034395;27;96883;-27
2023/09/21 04:25:16;;;;;;;2.85;1.13;;;;;;;18.42;85.67;99726.44;5033765;27;101310;-27
2023/09/21 04:27:49;;;;;;;2.50;1.20;;;;;;;18.40;86.12;99724.84;5033697;27;100781;-27
2023/09/21 04:30:16;;;;;;;4.28;1.30;;;;;;;18.35;85.16;99728.16;5033403;27;97214;-27
2023/09/21 04:32:45;;;;;;;1.73;1.00;;;;;;;18.32;86.24;99722.13;5033675;27;96811;-27
2023/09/21 04:35:10;;;;;;;1.67;0.70;;;;;;;18.27;86.36;99722.66;5033777;27;101163;-27
2023/09/21 04:37:38;;;;;;;1.77;1.13;;;;;;;18.25;87.89;99720.06;5052069;27;97309;-27
2023/09/21 04:40:10;;;;;;;2.90;1.05;;;;;;;18.28;86.50;99734.47;5033972;27;96636;-27
2023/09/21 04:42:39;;;;;;;;;;;;;;;18.26;87.14;99731.91;5034387;27;96707;-28
2023/09/21 04:45:10;;;;;;;1.13;0.63;;;;;;;18.25;87.80;99739.25;5051461;27;99336;-27
2023/09/21 04:47:39;;;;;;;2.30;1.00;;;;;;;18.17;88.31;99724.72;5052213;27;99073;-27
2023/09/21 04:50:06;;;;;;;1.67;0.95;;;;;;;18.13;88.89;99726.06;5033604;27;96551;-28
2023/09/21 04:52:34;;;;;;;3.65;1.42;;;;;;;18.03;89.11;99710.66;5052071;27;96753;-28
2023/09/21 04:54:59;;;;;;;3.00;1.40;;;;;;;18.04;88.29;99714.25;5033061;27;100866;-27
2023/09/21 04:57:30;;;;;;;2.15;1.00;;;;;;;18.02;88.31;99716.34;5051748;27;97816;-27
2023/09/21 04:59:56;;;;;;;2.37;1.07;;;;;;;18.00;87.82;99713.75;5033620;27;96734;-27
2023/09/21 05:02:21;;;;;;;4.38;1.10;;;;;;;17.96;88.22;99722.47;5051943;27;96797;-27
2023/09/21 05:04:47;;;;;;;2.05;1.15;;;;;;;17.91;88.56;99714.75;5051608;27;98005;-27
2023/09/21 05:07:14;;;;;;;2.67;1.13;;;;;;;17.89;88.65;99724.19;5051697;27;99461;-27
2023/09/21 05:09:40;;;;;;;1.75;0.80;;;;;;;17.79;88.37;99724.31;5052000;27;96696;-27
2023/09/21 05:12:06;;;;;;;2.47;1.05;;;;;;;17.81;87.94;99736.00;5033782;27;96808;-27
2023/09/21 05:14:33;;;;;;;4.38;1.02;;;;;;;17.78;88.02;99742.63;5051597;27;97899;-27
2023/09/21 05:16:58;;;;;;;1.67;0.95;;;;;;;17.70;88.54;99734.38;5033272;27;101385;-27
2023/09/21 05:19:25;;;;;;;2.17;1.08;;;;;;;17.70;89.07;99739.00;5051012;27;96509;-28
2023/09/21 05:21:56;;;;;;;1.98;1.23;;;;;;;17.67;90.01;99745.69;5033296;27;97004;-27
2023/09/21 05:24:21;;;;;;;1.42;0.82;;;;;;;17.55;89.70;99741.56;5051663;27;97406;-27
2023/09/21 05:26:47;;;;;;;2.40;1.10;;;;;;;17.51;91.28;99743.75;5054128;27;97975;-28
2023/09/21 05:29:12;;;;;;;2.63;1.13;;;;;;;17.44;91.56;99747.31;5054870;27;96598;-27
2023/09/21 05:31:38;;;;;;;1.48;0.95;;;;;;;17.41;92.18;99756.72;5054780;27;96792;-27
2023/09/21 05:34:03;;;;;;;2.38;1.20;;;;;;;17.32;92.46;99753.09;5054622;27;99426;-27
2023/09/21 05:36:30;;;;;;;1.95;1.00;;;;;;;17.35;92.98;99763.75;5054860;27;99269;-27
2023/09/21 05:38:55;;;;;;;1.73;0.95;;;;;;;17.41;92.75;99767.69;5036586;27;96530;-27
2023/09/21 05:41:21;;;;;;;1.92;1.20;;;;;;;17.46;91.88;99770.78;5036447;27;96955;-27
2023/09/21 05:43:46;;;;;;;2.05;1.27;;;;;;;17.47;92.23;99775.25;5035715;27;100921;-27
2023/09/21 05:46:12;;;;;;;1.83;0.90;;;;;;;17.39;92.18;99783.41;5054227;27;97868;-26
2023/09/21 05:48:38;;;;;;;1.45;0.60;;;;;;;17.44;92.48;99810.28;5054565;27;96713;-27
2023/09/21 05:51:04;;;;;;;0.98;0.40;;;;;;;17.36;90.54;99798.28;5036297;27;97313;-27
2023/09/21 05:53:31;;;;;;;0.95;0.40;;;;;;;17.34;88.75;99804.94;5036124;27;98892;-27
2023/09/21 05:55:57;;;;;;;1.00;0.40;;;;;;;17.26;88.23;99802.19;5054455;27;97953;-27
2023/09/21 05:58:23;;;;;;;0.60;0.22;;;;;;;17.19;88.15;99801.97;5036214;27;96591;-27
2023/09/21 06:00:49;;;;;;;0.40;0.25;;;;;;;17.22;87.89;99812.59;5055130;27;96774;-27
2023/09/21 06:03:14;;;;;;;0.55;0.22;;;;;;;17.16;87.78;99805.00;5035794;27;99030;-27
2023/09/21 06:05:45;;;;;;;0.73;0.38;;;;;;;17.18;87.49;99798.38;5054415;27;97928;-28
2023/09/21 06:08:10;;;;;;;0.73;0.20;;;;;;;17.17;87.03;99810.34;5035688;27;96565;-28
2023/09/21 06:10:36;;;;;;;0.38;0.30;;;;;;;17.16;87.42;99816.84;5054309;27;96703;-27
2023/09/21 06:13:07;;;;;;;0.85;0.38;;;;;;;17.09;87.18;99813.03;5054470;27;98438;-28
2023/09/21 06:15:33;;;;;;;0.45;0.25;;;;;;;17.08;87.19;99822.25;5054160;27;99125;-27
2023/09/21 06:17:58;;;;;;;1.17;0.38;;;;;;;17.02;87.34;99825.66;5054889;27;96512;-27
2023/09/21 06:20:26;;;;;;;0.65;0.35;;;;;;;17.01;87.91;99821.19;5054628;27;96745;-27
2023/09/21 06:22:52;;;;;;;1.05;0.40;;;;;;;16.93;87.68;99810.19;5053949;27;99271;-27
2023/09/21 06:25:20;;;;;;;0.55;0.25;;;;;;;16.93;87.83;99829.34;5054226;27;99633;-27
2023/09/21 06:27:46;;;;;;;0.38;0.30;;;;;;;16.85;88.09;99816.47;5035770;27;96817;-28
2023/09/21 06:30:12;;;;;;;1.30;0.43;;;;;;;16.84;88.28;99806.53;5054189;27;96828;-27
2023/09/21 06:32:39;;;;;;;0.90;0.45;;;;;;;16.85;88.93;99821.06;5035096;27;99782;-27
2023/09/21 06:35:06;;;;;;;2.55;0.60;;;;;;;16.76;88.39;99812.78;5053928;27;99308;-27
2023/09/21 06:37:33;;;;;;;1.02;0.28;;;;;;;16.78;88.83;99807.16;5052833;27;96661;-28
2023/09/21 06:40:00;;;;;;;0.38;0.38;;;;;;;16.76;88.97;99806.47;5035586;27;96562;-27
2023/09/21 06:42:26;;;;;;;2.42;0.60;;;;;;;16.74;88.82;99819.44;5035417;27;101415;-27
2023/09/21 06:44:54;;;;;;;1.95;0.38;;;;;;;16.71;89.08;99811.56;5053229;27;98171;-27
2023/09/21 06:47:21;;;;;;;2.35;0.52;;;;;;;16.68;88.70;99803.66;5053540;27;96604;-27
2023/09/21 06:49:47;;;;;;;0.22;0.20;;;;;;;16.69;89.03;99827.28;5035747;27;96783;-27
2023/09/21 06:52:13;;;;;;;1.40;0.68;;;;;;;16.68;89.66;99829.13;5035072;27;101083;-28
2023/09/21 06:54:40;;;;;;;0.47;0.35;;;;;;;16.72;90.09;99843.34;5053415;27;99283;-27
2023/09/21 06:57:08;;;;;;;1.35;0.70;;;;;;;16.72;89.89;99837.88;5053306;27;96692;-27
2023/09/21 06:59:36;;;;;;;3.30;1.13;;;;;;;16.77;89.76;99835.53;5035315;27;96818;-27
2023/09/21 07:02:03;;;;;;;0.55;0.30;;;;;;;16.72;89.79;99835.16;5053376;27;98042;-29
2023/09/21 07:04:33;;;;;;;2.72;0.77;;;;;;;16.76;89.94;99839.28;5034690;27;101437;-27
2023/09/21 07:07:02;;;;;;;2.05;0.90;;;;;;;16.74;90.07;99844.91;5053532;27;96721;-27
2023/09/21 07:09:27;;;;;;;3.88;1.27;;;;;;;16.76;89.95;99847.50;5034953;27;97062;-27
2023/09/21 07:11:52;;;;;;;2.53;0.80;;;;;;;16.74;90.30;99842.16;5053457;27;97485;-27
2023/09/21 07:14:18;;;;;;;1.67;0.98;;;;;;;16.73;90.14;99840.47;5053646;27;97758;-27
2023/09/21 07:16:43;;;;;;;2.67;1.02;;;;;;;16.70;89.78;99829.81;5053557;27;96651;-28
2023/09/21 07:19:09;;;;;;;3.45;1.30;;;;;;;16.75;90.28;99832.09;5053249;27;96835;-28
2023/09/21 07:21:35;;;;;;;2.72;1.30;;;;;;;16.75;90.41;99832.09;5052652;27;99410;-28
2023/09/21 07:24:00;;;;;;;1.90;0.88;;;;;;;16.71;90.02;99830.72;5052909;27;98666;-28
2023/09/21 07:26:26;;;;;;;2.05;1.20;;;;;;;16.72;90.20;99833.25;5053378;27;96572;-27
2023/09/21 07:28:52;;;;;;;2.17;1.08;;;;;;;16.72;90.22;99826.94;5053214;27;96759;-28
2023/09/21 07:31:17;;;;;;;3.13;1.08;;;;;;;16.76;89.96;99823.72;5034694;27;99738;-28
2023/09/21 07:33:43;;;;;;;2.17;0.88;;;;;;;16.68;89.76;99809.97;5052456;27;98007;-27
2023/09/21 07:36:11;;;;;;;4.85;0.85;;;;;;;16.68;90.20;99820.06;5053278;27;96485;-27
2023/09/21 07:38:36;;;;;;;1.67;0.80;;;;;;;16.72;90.22;99816.00;5053423;27;96742;-27
2023/09/21 07:41:03;;;;;;;0.82;0.45;;;;;;;16.73;90.24;99814.97;5053380;27;97425;-27
2023/09/21 07:43:28;;;;;;;0.85;0.50;;;;;;;16.65;90.14;99809.47;5052942;27;98012;-27
2023/09/21 07:45:53;;;;;;;2.85;0.90;;;;;;;16.68;90.96;99825.53;5051878;27;96820;-27
2023/09/21 07:48:20;;;;;;;2.50;0.95;;;;;;;16.71;90.49;99819.78;5052552;27;96733;-28
2023/09/21 07:50:46;;;;;;;2.85;0.80;;;;;;;16.71;90.91;99836.19;5052554;27;99067;-27
2023/09/21 07:53:11;;;;;;;2.90;0.90;;;;;;;16.73;91.11;99835.00;5034444;27;101126;-27
2023/09/21 07:55:37;;;;;;;4.05;0.77;;;;;;;16.72;91.01;99843.34;5052658;27;96644;-27
2023/09/21 07:58:03;;;;;;;2.88;0.77;;;;;;;16.79;90.77;99855.41;5052686;27;96843;-27
2023/09/21 08:00:29;;;;;;;1.90;1.02;;;;;;;16.75;90.84;99845.75;5034234;27;99117;-27
2023/09/21 08:02:55;;;;;;;1.65;0.77;;;;;;;16.77;90.96;99854.66;5052593;27;99914;-26
2023/09/21 08:05:20;;;;;;;1.42;0.80;;;;;;;16.73;91.62;99845.94;5052820;27;96790;-27
2023/09/21 08:07:46;;;;;;;1.95;0.88;;;;;;;16.69;91.40;99854.63;5052356;27;96794;-27
2023/09/21 08:10:11;;;;;;;1.67;0.73;;;;;;;16.67;91.32;99851.19;5052017;27;97551;-27
2023/09/21 08:12:40;;;;;;;1.80;0.80;;;;;;;16.72;90.90;99859.75;5052284;27;98753;-28
2023/09/21 08:15:06;;;;;;;0.95;0.60;;;;;;;16.74;91.39;99858.59;5034451;27;96840;-27
2023/09/21 08:17:32;;;;;;;1.65;0.75;;;;;;;16.71;91.61;99863.53;5034040;27;96785;-27
2023/09/21 08:19:58;;;;;;;2.85;1.25;;;;;;;16.74;91.44;99871.41;5052172;27;99130;-27
2023/09/21 08:22:26;;;;;;;2.45;0.80;;;;;;;16.76;91.78;99872.97;5033867;27;100865;-27
2023/09/21 08:24:52;;;;;;;2.88;0.90;;;;;;;16.74;91.50;99877.72;5034210;27;96753;-27
2023/09/21 08:27:18;;;;;;;2.08;0.90;;;;;;;16.69;91.22;99868.28;5052488;27;98014;-27
2023/09/21 08:29:43;;;;;;;1.00;0.57;;;;;;;16.69;91.72;99873.75;5033753;27;100922;-27
2023/09/21 08:32:09;;;;;;;1.73;0.73;;;;;;;16.69;91.60;99868.28;5051784;27;99117;-27
2023/09/21 08:34:35;;;;;;;0.77;0.45;;;;;;;16.67;92.03;99864.84;5051708;27;96762;-27
2023/09/21 08:37:00;;;;;;;1.38;0.65;;;;;;;16.69;91.36;99868.28;5052092;27;96814;-27
2023/09/21 08:39:25;;;;;;;5.05;1.02;;;;;;;16.64;91.47;99868.75;5052158;27;97870;-29
2023/09/21 08:41:51;;;;;;;2.70;1.00;;;;;;;16.63;91.62;99863.44;5051855;27;99542;-27
2023/09/21 08:44:18;;;;;;;2.17;0.80;;;;;;;16.65;91.54;99862.25;5033466;27;96785;-28
2023/09/21 08:46:45;;;;;;;2.00;0.75;;;;;;;16.64;91.61;99870.66;5052274;27;96663;-27
2023/09/21 08:49:13;;;;;;;0.88;0.70;;;;;;;16.62;91.77;99868.06;5051994;27;97351;-27
2023/09/21 08:51:40;;;;;;;1.23;0.57;;;;;;;16.66;92.00;99874.06;5033972;27;101199;-27
2023/09/21 08:54:07;;;;;;;1.15;0.65;;;;;;;16.68;91.81;99874.75;5033859;27;96541;-27
2023/09/21 08:56:36;;;;;;;1.92;0.95;;;;;;;16.62;91.67;99870.78;5034243;27;96875;-28
2023/09/21 08:59:04;;;;;;;3.88;0.75;;;;;;;16.65;91.77;99869.59;5033064;27;101961;-27
2023/09/21 09:01:29;;;;;;;1.60;0.65;;;;;;;16.69;91.99;99879.22;5035537;27;101470;-27
2023/09/21 09:03:55;;;;;;;2.53;1.15;;;;;;;16.62;91.66;99872.66;5055525;27;96910;-27
2023/09/21 09:06:20;;;;;;;1.75;0.80;;;;;;;16.65;91.84;99883.28;5037258;27;96698;-27
2023/09/21 09:08:46;;;;;;;2.22;0.68;;;;;;;16.67;91.86;99884.84;5055281;27;97299;-27
2023/09/21 09:11:37;;;;;;;2.00;0.73;;;;;;;16.63;91.84;99901.72;5055234;27;99396;-27
2023/09/21 09:14:04;;;;;;;1.30;0.90;;;;;;;16.59;92.03;99897.56;5037032;27;96633;-27
2023/09/21 09:16:30;;;;;;;3.00;0.95;;;;;;;16.63;92.57;99904.44;5037258;27;96819;-28
2023/09/21 09:19:00;;;;;;;2.47;0.98;;;;;;;16.59;92.44;99917.59;5036853;27;99066;-27
2023/09/21 09:21:26;;;;;;;1.35;0.75;;;;;;;16.58;92.30;99925.94;5054923;27;99574;-27
2023/09/21 09:23:51;;;;;;;1.98;0.80;;;;;;;16.59;92.21;99924.91;5054913;27;96816;-27
2023/09/21 09:26:18;;;;;;;0.82;0.52;;;;;;;16.59;93.22;99913.97;5054910;27;96669;-27
2023/09/21 09:28:43;;;;;;;3.28;0.90;;;;;;;16.57;92.91;99908.69;5036448;27;100885;-27
2023/09/21 09:31:11;;;;;;;1.75;1.00;;;;;;;16.56;92.74;99913.31;5055140;27;97950;-28
2023/09/21 09:33:37;;;;;;;1.80;0.98;;;;;;;16.56;92.97;99913.31;5036389;27;96874;-27
2023/09/21 09:36:03;;;;;;;1.75;0.93;;;;;;;16.48;93.14;99920.56;5036658;27;96816;-27
2023/09/21 09:38:28;;;;;;;2.35;1.00;;;;;;;16.46;92.78;99939.81;5055160;27;97354;-27
2023/09/21 09:40:57;;;;;;;1.27;0.70;;;;;;;16.48;92.50;99967.03;5055008;27;99095;-27
2023/09/21 09:43:26;;;;;;;4.13;0.80;;;;;;;16.45;92.67;99961.88;5036477;27;96675;-27
2023/09/21 09:45:52;;;;;;;1.60;0.68;;;;;;;16.46;93.02;99963.59;5035946;27;96898;-27
2023/09/21 09:48:19;;;;;;;1.30;0.60;;;;;;;16.43;93.24;99955.69;5053934;27;99062;-27
2023/09/21 09:50:54;;;;;;;3.78;0.47;;;;;;;16.42;92.84;99946.66;5036350;27;100943;-27
2023/09/21 09:53:23;;;;;;;1.02;0.28;;;;;;;16.42;92.54;99946.66;5054701;27;96641;-29
2023/09/21 09:55:53;;;;;;;1.88;0.35;;;;;;;16.40;92.64;99959.59;5036254;27;96898;-27
2023/09/21 09:58:20;;;;;;;2.63;0.65;;;;;;;16.40;92.91;99964.19;5036093;27;101619;-28
2023/09/21 10:00:45;;;;;;;0.88;0.50;;;;;;;16.38;92.62;99953.44;5036230;27;101595;-27
2023/09/21 10:03:11;;;;;;;2.88;0.85;;;;;;;16.43;93.35;99959.28;5054581;27;96768;-27
2023/09/21 10:05:39;;;;;;;1.88;0.55;;;;;;;16.46;93.78;99956.22;5054871;27;96794;-28
2023/09/21 10:08:07;;;;;;;1.13;0.60;;;;;;;16.44;93.16;99950.06;5035630;27;101182;-28
2023/09/21 10:10:38;;;;;;;0.77;0.32;;;;;;;16.45;93.18;99950.94;5035863;27;99287;-27
2023/09/21 10:13:05;;;;;;;0.50;0.37;;;;;;;16.45;93.10;99967.34;5034362;27;97144;-27
2023/09/21 10:15:33;;;;;;;0.45;0.22;;;;;;;16.44;92.82;99977.38;5035990;27;97394;-27
2023/09/21 10:17:59;;;;;;;0.50;0.30;;;;;;;16.44;92.53;99963.72;5035807;27;100861;-27
2023/09/21 10:20:27;;;;;;;0.40;0.25;;;;;;;16.45;92.97;99954.53;5035606;27;100870;-27
2023/09/21 10:22:54;;;;;;;1.02;0.45;;;;;;;16.46;92.62;99941.72;5054222;27;96683;-27
2023/09/21 10:25:37;;;;;;;0.50;0.20;;;;;;;16.43;92.03;99939.28;5035959;27;96898;-27
2023/09/21 10:28:22;;;;;;;0.93;0.30;;;;;;;16.40;91.80;99935.00;5035712;27;100846;-27
2023/09/21 10:30:47;;;;;;;0.52;0.45;;;;;;;16.41;91.84;99939.44;5035831;27;101508;-27
2023/09/21 10:33:13;;;;;;;2.97;0.50;;;;;;;16.38;91.75;99933.44;5035458;27;96797;-27
2023/09/21 10:35:44;;;;;;;1.13;0.50;;;;;;;16.34;91.35;99931.00;5054426;27;96535;-27
2023/09/21 10:38:14;;;;;;;0.77;0.30;;;;;;;16.31;90.21;99935.91;5034991;27;100964;-27
2023/09/21 10:40:40;;;;;;;0.30;0.30;;;;;;;16.22;89.77;99924.03;5035803;27;100344;-27
2023/09/21 10:43:37;;;;;;;2.42;0.43;;;;;;;16.25;90.25;99917.41;5053908;27;96573;-29
2023/09/21 10:46:06;;;;;;;0.93;0.40;;;;;;;16.27;90.47;99918.09;5053725;27;96733;-27
2023/09/21 10:48:31;;;;;;;1.60;0.55;;;;;;;16.25;91.61;99912.78;5053447;27;99422;-27
2023/09/21 10:50:57;;;;;;;0.32;0.22;;;;;;;16.22;91.66;99915.84;5053504;27;99186;-27
2023/09/21 10:53:23;;;;;;;1.20;0.28;;;;;;;16.20;90.74;99919.72;5053978;27;96446;-28
2023/09/21 10:55:48;;;;;;;2.30;0.20;;;;;;;16.24;91.44;99938.41;5035431;27;96910;-27
2023/09/21 10:58:17;;;;;;;0.70;0.40;;;;;;;16.12;90.16;99929.56;5053668;27;97483;-27
2023/09/21 11:00:43;;;;;;;0.35;0.30;;;;;;;16.14;90.79;99922.06;5053355;27;99141;-27
2023/09/21 11:03:10;;;;;;;1.55;0.38;;;;;;;16.14;91.18;99922.06;5034455;27;96660;-28
2023/09/21 11:05:36;;;;;;;0.60;0.40;;;;;;;16.14;90.97;99922.06;5035208;27;96918;-28
2023/09/21 11:08:02;;;;;;;1.08;0.40;;;;;;;16.08;90.94;99914.47;5053133;27;98314;-27
2023/09/21 11:10:28;;;;;;;1.13;0.47;;;;;;;16.12;90.81;99909.56;5034784;27;100862;-27
2023/09/21 11:12:54;;;;;;;0.52;0.22;;;;;;;16.20;90.86;99900.59;5053665;27;96644;-27
2023/09/21 11:15:20;;;;;;;0.45;0.40;;;;;;;16.20;90.96;99890.53;5053646;27;96581;-27
2023/09/21 11:17:47;;;;;;;0.40;0.30;;;;;;;16.20;91.29;99885.06;5053115;27;99267;-27
2023/09/21 11:20:14;;;;;;;1.15;0.50;;;;;;;16.28;91.46;99882.44;5035216;27;100525;-27
2023/09/21 11:22:41;;;;;;;1.83;0.40;;;;;;;16.28;92.02;99878.81;5053176;27;96581;-27
2023/09/21 11:25:09;;;;;;;0.38;0.28;;;;;;;16.21;92.87;99869.53;5034440;27;96945;-27
2023/09/21 11:27:35;;;;;;;0.77;0.45;;;;;;;16.20;92.62;99849.53;5034218;27;101335;-27
2023/09/21 11:30:00;;;;;;;0.52;0.38;;;;;;;16.24;92.61;99845.50;5052742;27;98738;-28
2023/09/21 11:32:27;;;;;;;2.53;0.15;;;;;;;16.14;92.03;99837.38;5053204;27;96658;-27
2023/09/21 11:34:58;;;;;;;0.22;0.10;;;;;;;16.16;91.94;99828.16;5053015;27;96759;-27